createdAt,value
2022-08-27T00:01:47.100Z,1015.32
2022-08-27T00:06:54.202Z,1015.22
2022-08-27T00:12:01.489Z,1015.22
2022-08-27T00:17:08.769Z,1015.21
2022-08-27T00:22:16.011Z,1015.15
2022-08-27T00:27:23.214Z,1015.15
2022-08-27T00:32:30.404Z,1015.15
2022-08-27T00:37:38.237Z,1015.13
2022-08-27T00:42:45.462Z,1015.03
2022-08-27T00:47:52.741Z,1015.01
2022-08-27T00:52:59.943Z,1014.95
2022-08-27T00:58:07.172Z,1014.92
2022-08-27T01:03:14.364Z,1014.85
2022-08-27T01:08:21.587Z,1014.82
2022-08-27T01:13:58.746Z,1014.82
2022-08-27T01:18:35.966Z,1014.78
2022-08-27T01:23:43.153Z,1014.77
2022-08-27T01:28:50.334Z,1014.81
2022-08-27T01:33:57.527Z,1014.86
2022-08-27T01:39:05.431Z,1014.87
2022-08-27T01:44:11.997Z,1014.82
2022-08-27T01:49:19.294Z,1014.76
2022-08-27T01:54:26.462Z,1014.77
2022-08-27T01:59:39.430Z,1014.81
2022-08-27T02:04:40.825Z,1014.80
2022-08-27T02:09:48.016Z,1014.73
2022-08-27T02:14:55.228Z,1014.77
2022-08-27T02:20:02.376Z,1014.84
2022-08-27T02:25:10.400Z,1014.78
2022-08-27T02:30:16.739Z,1014.75
2022-08-27T02:35:23.935Z,1014.72
2022-08-27T02:40:31.172Z,1014.75
2022-08-27T02:45:38.311Z,1014.77
2022-08-27T02:50:45.562Z,1014.74
2022-08-27T02:55:52.777Z,1014.72
2022-08-27T03:01:00.071Z,1014.66
2022-08-27T03:06:07.259Z,1014.58
2022-08-27T03:11:14.498Z,1014.60
2022-08-27T03:16:21.796Z,1014.59
2022-08-27T03:21:28.911Z,1014.50
2022-08-27T03:26:36.101Z,1014.42
2022-08-27T03:31:43.358Z,1014.39
2022-08-27T03:36:50.461Z,1014.38
2022-08-27T03:41:57.651Z,1014.46
2022-08-27T03:47:04.828Z,1014.33
2022-08-27T03:52:12.025Z,1014.29
2022-08-27T03:57:20.909Z,1014.25
2022-08-27T04:02:28.162Z,1014.24
2022-08-27T04:07:35.280Z,1014.22
2022-08-27T04:12:42.464Z,1014.23
2022-08-27T04:17:49.672Z,1014.19
2022-08-27T04:22:56.925Z,1014.20
2022-08-27T04:28:04.182Z,1014.23
2022-08-27T04:33:11.295Z,1014.22
2022-08-27T04:38:18.490Z,1014.20
2022-08-27T04:43:25.672Z,1014.20
2022-08-27T04:48:32.917Z,1014.12
2022-08-27T04:53:40.149Z,1014.15
2022-08-27T04:58:47.345Z,1014.16
2022-08-27T05:03:54.513Z,1014.22
2022-08-27T05:09:01.689Z,1014.23
2022-08-27T05:14:08.874Z,1014.22
2022-08-27T05:19:16.073Z,1014.25
2022-08-27T05:24:23.325Z,1014.25
2022-08-27T05:29:30.542Z,1014.22
2022-08-27T05:34:37.757Z,1014.23
2022-08-27T05:39:44.911Z,1014.25
2022-08-27T05:44:52.194Z,1014.28
2022-08-27T05:49:59.373Z,1014.32
2022-08-27T05:55:06.583Z,1014.32
2022-08-27T06:00:14.869Z,1014.39
2022-08-27T06:05:21.144Z,1014.44
2022-08-27T06:10:28.256Z,1014.51
2022-08-27T06:15:35.403Z,1014.49
2022-08-27T06:20:42.599Z,1014.47
2022-08-27T06:25:49.833Z,1014.41
2022-08-27T06:30:57.141Z,1014.41
2022-08-27T06:36:04.230Z,1014.44
2022-08-27T06:41:19.117Z,1014.49
2022-08-27T06:46:18.806Z,1014.50
2022-08-27T06:51:27.208Z,1014.49
2022-08-27T06:56:34.390Z,1014.47
2022-08-27T07:01:41.759Z,1014.50
2022-08-27T07:06:48.833Z,1014.51
2022-08-27T07:11:56.047Z,1014.53
2022-08-27T07:17:03.247Z,1014.56
2022-08-27T07:22:10.417Z,1014.54
2022-08-27T07:27:17.709Z,1014.58
2022-08-27T07:32:30.422Z,1014.61
2022-08-27T07:37:35.384Z,1014.64
2022-08-27T07:42:39.472Z,1014.62
2022-08-27T07:47:46.660Z,1014.63
2022-08-27T07:52:53.939Z,1014.61
2022-08-27T07:58:01.138Z,1014.65
2022-08-27T08:03:08.396Z,1014.69
2022-08-27T08:08:15.585Z,1014.74
2022-08-27T08:13:22.891Z,1014.77
2022-08-27T08:18:30.195Z,1014.81
2022-08-27T08:23:37.472Z,1014.83
2022-08-27T08:28:44.729Z,1014.86
2022-08-27T08:33:52.039Z,1014.86
2022-08-27T08:38:59.311Z,1014.92
2022-08-27T08:44:06.580Z,1014.89
2022-08-27T08:49:14.537Z,1014.92
2022-08-27T08:54:21.784Z,1014.94
2022-08-27T08:59:29.098Z,1014.99
2022-08-27T09:04:36.424Z,1014.93
2022-08-27T09:09:43.639Z,1014.94
2022-08-27T09:14:50.870Z,1014.90
2022-08-27T09:19:58.093Z,1014.88
2022-08-27T09:25:05.432Z,1014.86
2022-08-27T09:30:12.872Z,1014.89
2022-08-27T09:35:20.203Z,1014.84
2022-08-27T09:40:27.528Z,1014.83
2022-08-27T09:45:34.818Z,1014.83
2022-08-27T09:50:43.862Z,1014.78
2022-08-27T09:55:49.304Z,1014.70
2022-08-27T10:00:56.629Z,1014.71
2022-08-27T10:06:03.852Z,1014.78
2022-08-27T10:11:11.144Z,1014.80
2022-08-27T10:16:18.352Z,1014.75
2022-08-27T10:21:25.644Z,1014.69
2022-08-27T10:26:33.902Z,1014.66
2022-08-27T10:31:40.080Z,1014.63
2022-08-27T10:36:47.190Z,1014.63
2022-08-27T10:41:54.443Z,1014.62
2022-08-27T10:47:01.647Z,1014.58
2022-08-27T10:52:08.833Z,1014.55
2022-08-27T10:57:35.312Z,1014.55
2022-08-27T11:02:23.428Z,1014.52
2022-08-27T11:07:30.603Z,1014.45
2022-08-27T11:12:37.883Z,1014.41
2022-08-27T11:17:45.159Z,1014.42
2022-08-27T11:22:52.459Z,1014.38
2022-08-27T11:27:59.750Z,1014.38
2022-08-27T11:33:07.012Z,1014.32
2022-08-27T11:38:14.286Z,1014.32
2022-08-27T11:43:21.581Z,1014.30
2022-08-27T11:48:28.772Z,1014.22
2022-08-27T11:53:51.959Z,1014.26
2022-08-27T11:58:53.296Z,1014.16
2022-08-27T12:03:50.745Z,1014.14
2022-08-27T12:08:57.707Z,1014.09
2022-08-27T12:14:04.944Z,1014.05
2022-08-27T12:19:12.167Z,1014.05
2022-08-27T12:24:19.351Z,1013.98
2022-08-27T12:29:27.913Z,1013.89
2022-08-27T12:34:33.826Z,1013.89
2022-08-27T12:39:43.417Z,1013.85
2022-08-27T12:44:50.723Z,1013.83
2022-08-27T12:49:58.000Z,1013.84
2022-08-27T12:55:05.277Z,1013.77
2022-08-27T13:00:12.479Z,1013.75
2022-08-27T13:05:19.671Z,1013.73
2022-08-27T13:10:26.971Z,1013.71
2022-08-27T13:15:34.232Z,1013.73
2022-08-27T13:20:41.391Z,1013.69
2022-08-27T13:25:48.594Z,1013.71
2022-08-27T13:30:55.961Z,1013.70
2022-08-27T13:36:03.097Z,1013.72
2022-08-27T13:41:10.373Z,1013.70
2022-08-27T13:46:18.424Z,1013.69
2022-08-27T13:51:25.530Z,1013.55
2022-08-27T13:56:32.724Z,1013.55
2022-08-27T14:01:40.124Z,1013.62
2022-08-27T14:06:47.277Z,1013.61
2022-08-27T14:11:54.472Z,1013.66
2022-08-27T14:17:01.765Z,1013.67
2022-08-27T14:22:09.048Z,1013.67
2022-08-27T14:27:16.226Z,1013.65
2022-08-27T14:32:23.516Z,1013.65
2022-08-27T14:37:30.747Z,1013.65
2022-08-27T14:42:38.316Z,1013.61
2022-08-27T14:47:45.586Z,1013.64
2022-08-27T14:52:52.852Z,1013.68
2022-08-27T14:58:00.077Z,1013.67
2022-08-27T15:03:07.358Z,1013.66
2022-08-27T15:08:14.755Z,1013.73
2022-08-27T15:13:21.918Z,1013.70
2022-08-27T15:18:29.157Z,1013.68
2022-08-27T15:23:36.395Z,1013.74
2022-08-27T15:28:43.650Z,1013.80
2022-08-27T15:33:50.914Z,1013.78
2022-08-27T15:38:58.105Z,1013.81
2022-08-27T15:44:05.312Z,1013.81
2022-08-27T15:49:12.553Z,1013.90
2022-08-27T15:54:19.766Z,1013.96
2022-08-27T15:59:26.931Z,1014.05
2022-08-27T16:04:34.187Z,1014.11
2022-08-27T16:09:41.419Z,1014.09
2022-08-27T16:14:48.588Z,1014.11
2022-08-27T16:19:55.999Z,1014.15
2022-08-27T16:25:03.134Z,1014.18
2022-08-27T16:30:10.362Z,1014.20
2022-08-27T16:35:17.609Z,1014.23
2022-08-27T16:40:25.078Z,1014.29
2022-08-27T16:45:32.238Z,1014.27
2022-08-27T16:50:39.513Z,1014.24
2022-08-27T16:55:46.804Z,1014.28
2022-08-27T17:00:53.986Z,1014.24
2022-08-27T17:06:01.273Z,1014.23
2022-08-27T17:11:08.459Z,1014.27
2022-08-27T17:16:15.792Z,1014.30
2022-08-27T17:21:25.561Z,1014.33
2022-08-27T17:26:30.104Z,1014.39
2022-08-27T17:31:37.318Z,1014.34
2022-08-27T17:36:44.626Z,1014.35
2022-08-27T17:41:51.867Z,1014.38
2022-08-27T17:46:59.110Z,1014.40
2022-08-27T17:52:06.324Z,1014.42
2022-08-27T17:57:13.501Z,1014.48
2022-08-27T18:02:20.710Z,1014.51
2022-08-27T18:07:27.948Z,1014.53
2022-08-27T18:12:37.573Z,1014.58
2022-08-27T18:17:45.065Z,1014.61
2022-08-27T18:22:52.433Z,1014.74
2022-08-27T18:27:59.657Z,1014.87
2022-08-27T18:33:06.894Z,1014.93
2022-08-27T18:38:14.299Z,1014.97
2022-08-27T18:43:21.382Z,1014.96
2022-08-27T18:48:28.559Z,1014.98
2022-08-27T18:53:35.770Z,1015.02
2022-08-27T18:58:42.925Z,1015.09
2022-08-27T19:03:50.243Z,1015.14
2022-08-27T19:08:57.529Z,1015.21
2022-08-27T19:14:04.809Z,1015.26
2022-08-27T19:19:12.122Z,1015.30
2022-08-27T19:24:19.378Z,1015.34
2022-08-27T19:29:26.670Z,1015.34
2022-08-27T19:34:33.862Z,1015.36
2022-08-27T19:39:41.139Z,1015.35
2022-08-27T19:44:48.436Z,1015.42
2022-08-27T19:49:55.697Z,1015.43
2022-08-27T19:55:13.725Z,1015.41
2022-08-27T20:00:10.102Z,1015.44
2022-08-27T20:05:19.062Z,1015.47
2022-08-27T20:10:30.040Z,1015.48
2022-08-27T20:15:31.822Z,1015.53
2022-08-27T20:20:39.006Z,1015.56
2022-08-27T20:25:46.280Z,1015.54
2022-08-27T20:30:53.514Z,1015.46
2022-08-27T20:36:00.737Z,1015.45
2022-08-27T20:41:07.944Z,1015.44
2022-08-27T20:46:15.235Z,1015.52
2022-08-27T20:51:22.406Z,1015.53
2022-08-27T20:56:30.811Z,1015.53
2022-08-27T21:01:37.976Z,1015.51
2022-08-27T21:06:45.188Z,1015.52
2022-08-27T21:11:52.354Z,1015.54
2022-08-27T21:16:59.536Z,1015.52
2022-08-27T21:22:06.681Z,1015.54
2022-08-27T21:27:13.918Z,1015.57
2022-08-27T21:32:21.110Z,1015.57
2022-08-27T21:37:28.286Z,1015.59
2022-08-27T21:42:35.461Z,1015.62
2022-08-27T21:47:42.633Z,1015.61
2022-08-27T21:52:49.824Z,1015.70
2022-08-27T21:57:57.032Z,1015.67
2022-08-27T22:03:04.276Z,1015.67
2022-08-27T22:08:11.516Z,1015.67
2022-08-27T22:13:18.572Z,1015.67
2022-08-27T22:18:25.764Z,1015.65
2022-08-27T22:23:32.939Z,1015.61
2022-08-27T22:28:40.118Z,1015.61
2022-08-27T22:33:47.309Z,1015.56
2022-08-27T22:38:54.512Z,1015.60
2022-08-27T22:44:01.703Z,1015.55
2022-08-27T22:49:08.867Z,1015.52
2022-08-27T22:54:16.067Z,1015.49
2022-08-27T22:59:23.267Z,1015.48
2022-08-27T23:04:53.262Z,1015.48
2022-08-27T23:09:37.700Z,1015.45
2022-08-27T23:14:44.795Z,1015.45
2022-08-27T23:19:51.986Z,1015.48
2022-08-27T23:24:59.172Z,1015.54
2022-08-27T23:30:06.322Z,1015.50
2022-08-27T23:35:13.438Z,1015.44
2022-08-27T23:40:20.654Z,1015.52
2022-08-27T23:45:27.805Z,1015.54
2022-08-27T23:50:35.005Z,1015.54
2022-08-27T23:55:42.212Z,1015.59
